Weather at Northeast Philadelphia Airport

Public forecast

Using degrees Fahrenheit for public forecast. Weather courtesy of forecast.io.

Current aviation weather report (METAR) for Northeast Philadelphia Airport

Retrieved 2020/11/30 18:54 UTC (38 minutes ago):

KPNE 301854Z 18011G18KT 10SM BKN014 OVC028 19/18 A2940 RMK AO2 RAB23E36 SLP954 P0000 T01940178

Aviation forecast (TAF) for Northeast Philadelphia Airport

Retrieved 2020/11/30 18:42 UTC (50 minutes ago):

TAF KPNE 301739Z 3018/0118 16016G29KT 5SM BR VCTS SCT007 OVC015CB WS020/17045KT TEMPO 3018/3022 1SM TSRA OVC007CB FM010000 20012KT P6SM VCSH BKN025 FM010200 22007KT P6SM BKN040 FM011400 23010G20KT P6SM BKN035